createdAt,value
2019-01-03T00:00:25.879Z,96798.69
2019-01-03T00:03:28.744Z,96811.45
2019-01-03T00:06:17.434Z,96806.91
2019-01-03T00:09:01.396Z,96815.87
2019-01-03T00:12:11.673Z,96816.80
2019-01-03T00:15:02.127Z,96822.72
2019-01-03T00:18:08.914Z,96820.66
2019-01-03T00:21:16.311Z,96825.56
2019-01-03T00:24:01.182Z,96826.34
2019-01-03T00:26:57.238Z,96831.89
2019-01-03T00:29:46.314Z,96839.17
2019-01-03T00:32:35.060Z,96840.61
2019-01-03T00:35:25.345Z,96836.70
2019-01-03T00:38:15.142Z,96845.19
2019-01-03T00:41:04.071Z,96849.57
2019-01-03T00:44:03.347Z,96852.38
2019-01-03T00:47:05.629Z,96851.95
2019-01-03T00:49:54.424Z,96853.48
2019-01-03T00:52:43.366Z,96846.97
2019-01-03T00:55:39.482Z,96845.76
2019-01-03T00:58:41.817Z,96846.89
2019-01-03T01:01:31.984Z,96846.53
2019-01-03T01:04:20.671Z,96853.88
2019-01-03T01:07:10.872Z,96856.73
2019-01-03T01:10:01.165Z,96854.59
2019-01-03T01:12:49.928Z,96856.56
2019-01-03T01:15:40.309Z,96847.36
2019-01-03T01:18:30.822Z,96857.68
2019-01-03T01:21:36.360Z,96853.48
2019-01-03T01:24:25.354Z,96855.69
2019-01-03T01:27:15.547Z,96858.23
2019-01-03T01:30:05.655Z,96858.08
2019-01-03T01:32:55.919Z,96856.20
2019-01-03T01:35:49.251Z,96857.30
2019-01-03T01:38:37.190Z,96858.06
2019-01-03T01:41:26.434Z,96858.47
2019-01-03T01:44:19.498Z,96855.30
2019-01-03T01:47:12.881Z,96847.81
2019-01-03T01:50:19.691Z,96849.72
2019-01-03T01:53:22.948Z,96849.58
2019-01-03T01:56:16.272Z,96842.62
2019-01-03T01:59:06.420Z,96847.91
2019-01-03T02:02:00.667Z,96853.09
2019-01-03T02:04:50.860Z,96856.13
2019-01-03T02:07:40.896Z,96853.09
2019-01-03T02:10:31.055Z,96849.77
2019-01-03T02:13:27.078Z,96846.23
2019-01-03T02:16:23.572Z,96848.39
2019-01-03T02:19:18.210Z,96851.98
2019-01-03T02:22:08.863Z,96844.27
2019-01-03T02:25:04.892Z,96845.97
2019-01-03T02:27:47.884Z,96846.41
2019-01-03T02:30:33.802Z,96838.52
2019-01-03T02:33:17.984Z,96834.14
2019-01-03T02:36:07.227Z,96839.66
2019-01-03T02:38:57.383Z,96840.46
2019-01-03T02:41:46.327Z,96846.84
2019-01-03T02:44:35.211Z,96848.95
2019-01-03T02:47:40.494Z,96849.94
2019-01-03T02:50:33.656Z,96844.85
2019-01-03T02:53:24.068Z,96845.47
2019-01-03T02:56:13.982Z,96850.95
2019-01-03T02:59:10.085Z,96851.99
2019-01-03T03:02:00.449Z,96852.27
2019-01-03T03:04:56.710Z,96858.28
2019-01-03T03:07:54.612Z,96862.48
2019-01-03T03:10:47.948Z,96857.67
2019-01-03T03:13:41.555Z,96861.97
2019-01-03T03:16:43.939Z,96866.13
2019-01-03T03:19:36.947Z,96866.55
2019-01-03T03:22:42.444Z,96868.94
2019-01-03T03:25:44.483Z,96867.39
2019-01-03T03:28:33.326Z,96866.06
2019-01-03T03:31:23.583Z,96876.16
2019-01-03T03:34:08.750Z,96872.84
2019-01-03T03:36:57.523Z,96875.02
2019-01-03T03:39:46.590Z,96877.09
2019-01-03T03:42:36.760Z,96884.16
2019-01-03T03:45:20.257Z,96882.05
2019-01-03T03:48:22.844Z,96880.75
2019-01-03T03:51:19.174Z,96883.13
2019-01-03T03:54:18.614Z,96889.98
2019-01-03T03:57:03.635Z,96889.39
2019-01-03T03:59:52.586Z,96890.56
2019-01-03T04:02:42.798Z,96896.91
2019-01-03T04:05:35.905Z,96895.70
2019-01-03T04:08:38.769Z,96901.84
2019-01-03T04:11:28.018Z,96909.33
2019-01-03T04:14:18.232Z,96910.72
2019-01-03T04:17:07.241Z,96912.83
2019-01-03T04:19:55.975Z,96916.08
2019-01-03T04:22:52.190Z,96924.63
2019-01-03T04:25:54.810Z,96922.30
2019-01-03T04:28:43.655Z,96921.75
2019-01-03T04:31:36.739Z,96923.16
2019-01-03T04:34:32.989Z,96930.84
2019-01-03T04:37:21.926Z,96930.47
2019-01-03T04:40:11.970Z,96940.79
2019-01-03T04:43:00.674Z,96933.32
2019-01-03T04:45:45.178Z,96933.73
2019-01-03T04:48:36.797Z,96933.73
2019-01-03T04:51:25.676Z,96943.30
2019-01-03T04:54:25.218Z,96940.16
2019-01-03T04:57:21.389Z,96944.23
2019-01-03T05:00:15.185Z,96944.64
2019-01-03T05:03:17.625Z,96944.20
2019-01-03T05:06:06.722Z,96950.59
2019-01-03T05:09:08.764Z,96949.06
2019-01-03T05:12:08.120Z,96954.28
2019-01-03T05:15:14.009Z,96956.02
2019-01-03T05:18:11.282Z,96963.23
2019-01-03T05:21:07.388Z,96964.09
2019-01-03T05:23:57.842Z,96963.50
2019-01-03T05:26:48.184Z,96970.08
2019-01-03T05:29:37.734Z,96971.56
2019-01-03T05:32:26.649Z,96979.66
2019-01-03T05:35:20.004Z,96980.80
2019-01-03T05:38:08.785Z,96977.39
2019-01-03T05:40:57.510Z,96979.46
2019-01-03T05:44:05.887Z,96987.70
2019-01-03T05:47:05.247Z,96985.94
2019-01-03T05:49:53.801Z,96999.55
2019-01-03T05:52:59.423Z,97000.75
2019-01-03T05:56:09.125Z,96999.89
2019-01-03T05:58:49.174Z,96998.73
2019-01-03T06:01:38.017Z,97003.05
2019-01-03T06:04:28.121Z,97002.55
2019-01-03T06:07:18.299Z,97010.86
2019-01-03T06:10:06.205Z,97014.20
2019-01-03T06:12:48.974Z,97025.17
2019-01-03T06:15:45.113Z,97024.46
2019-01-03T06:18:46.981Z,97026.07
2019-01-03T06:21:35.755Z,97029.80
2019-01-03T06:24:26.139Z,97039.47
2019-01-03T06:27:22.216Z,97031.50
2019-01-03T06:30:11.261Z,97042.81
2019-01-03T06:33:19.706Z,97047.80
2019-01-03T06:36:09.999Z,97047.46
2019-01-03T06:39:06.073Z,97054.03
2019-01-03T06:41:55.068Z,97059.59
2019-01-03T06:44:46.353Z,97055.68
2019-01-03T06:47:31.232Z,97061.29
2019-01-03T06:50:30.318Z,97070.25
2019-01-03T06:53:18.421Z,97070.53
2019-01-03T06:56:07.450Z,97076.17
2019-01-03T06:59:03.785Z,97082.59
2019-01-03T07:01:53.717Z,97086.66
2019-01-03T07:04:38.307Z,97094.53
2019-01-03T07:07:24.059Z,97098.13
2019-01-03T07:10:23.361Z,97106.31
2019-01-03T07:13:31.929Z,97104.05
2019-01-03T07:16:23.156Z,97110.01
2019-01-03T07:19:07.400Z,97108.36
2019-01-03T07:22:00.381Z,97115.93
2019-01-03T07:24:49.334Z,97115.56
2019-01-03T07:27:45.641Z,97121.42
2019-01-03T07:30:34.567Z,97121.52
2019-01-03T07:33:23.338Z,97119.50
2019-01-03T07:36:25.868Z,97119.78
2019-01-03T07:39:25.107Z,97129.20
2019-01-03T07:42:15.388Z,97120.00
2019-01-03T07:45:11.714Z,97111.37
2019-01-03T07:48:02.001Z,97113.41
2019-01-03T07:50:59.168Z,97118.13
2019-01-03T07:53:48.025Z,97120.68
2019-01-03T07:56:39.625Z,97122.61
2019-01-03T07:59:28.649Z,97123.33
2019-01-03T08:02:30.986Z,97121.11
2019-01-03T08:05:21.370Z,97122.44
2019-01-03T08:08:24.430Z,97118.14
2019-01-03T08:11:06.719Z,97128.80
2019-01-03T08:14:12.106Z,97126.83
2019-01-03T08:17:06.832Z,97127.37
2019-01-03T08:20:02.698Z,97125.43
2019-01-03T08:22:56.820Z,97121.20
2019-01-03T08:26:05.328Z,97123.89
2019-01-03T08:28:50.662Z,97121.57
2019-01-03T08:31:46.854Z,97111.29
2019-01-03T08:34:38.199Z,97111.59
2019-01-03T08:37:28.543Z,97116.72
2019-01-03T08:40:17.734Z,97102.56
2019-01-03T08:43:03.368Z,97094.66
2019-01-03T08:45:56.576Z,97091.77
2019-01-03T08:48:45.460Z,97096.73
2019-01-03T08:51:35.731Z,97086.85
2019-01-03T08:54:31.923Z,97086.14
2019-01-03T08:57:21.196Z,97081.73
2019-01-03T09:00:23.758Z,97075.09
2019-01-03T09:03:12.853Z,97074.36
2019-01-03T09:06:03.012Z,97071.81
2019-01-03T09:08:59.508Z,97073.52
2019-01-03T09:11:52.881Z,97079.82
2019-01-03T09:14:43.650Z,97091.97
2019-01-03T09:17:44.883Z,97088.80
2019-01-03T09:20:33.189Z,97092.25
2019-01-03T09:23:22.278Z,97098.23
2019-01-03T09:26:15.471Z,97103.27
2019-01-03T09:29:04.718Z,97110.53
2019-01-03T09:32:07.057Z,97105.88
2019-01-03T09:35:00.490Z,97106.42
2019-01-03T09:38:13.598Z,97103.64
2019-01-03T09:41:02.709Z,97103.49
2019-01-03T09:43:55.735Z,97101.51
2019-01-03T09:46:27.200Z,97092.98
2019-01-03T09:48:58.663Z,97100.22
2019-01-03T09:51:30.085Z,97098.19
2019-01-03T09:54:01.694Z,97097.02
2019-01-03T09:56:33.563Z,97099.47
2019-01-03T09:59:05.009Z,97085.67
2019-01-03T10:01:36.555Z,97087.64
2019-01-03T10:04:07.946Z,97084.97
2019-01-03T10:06:40.007Z,97084.70
2019-01-03T10:09:11.552Z,97091.27
2019-01-03T10:11:43.028Z,97091.28
2019-01-03T10:14:14.564Z,97092.77
2019-01-03T10:16:46.002Z,97099.09
2019-01-03T10:19:17.603Z,97096.25
2019-01-03T10:21:49.088Z,97099.16
2019-01-03T10:24:20.593Z,97103.48
2019-01-03T10:26:54.698Z,97102.59
2019-01-03T10:29:26.740Z,97102.22
2019-01-03T10:31:58.234Z,97097.89
2019-01-03T10:34:29.656Z,97094.53
2019-01-03T10:37:01.915Z,97094.33
2019-01-03T10:39:33.463Z,97099.89
2019-01-03T10:42:05.046Z,97100.59
2019-01-03T10:44:36.593Z,97092.12
2019-01-03T10:47:08.294Z,97095.69
2019-01-03T10:49:41.164Z,97097.97
2019-01-03T10:52:12.893Z,97091.95
2019-01-03T10:54:44.333Z,97082.85
2019-01-03T10:57:15.998Z,97089.11
2019-01-03T10:59:47.636Z,97083.11
2019-01-03T11:02:19.244Z,97078.23
2019-01-03T11:04:50.670Z,97082.32
2019-01-03T11:07:22.119Z,97074.31
2019-01-03T11:09:53.653Z,97074.98
2019-01-03T11:12:24.938Z,97073.02
2019-01-03T11:14:56.432Z,97073.70
2019-01-03T11:17:27.857Z,97076.13
2019-01-03T11:19:59.361Z,97075.70
2019-01-03T11:22:30.744Z,97065.78
2019-01-03T11:25:02.141Z,97068.07
2019-01-03T11:27:33.559Z,97069.36
2019-01-03T11:30:05.123Z,97073.59
2019-01-03T11:32:36.584Z,97069.12
2019-01-03T11:35:08.282Z,97063.78
2019-01-03T11:37:39.525Z,97073.84
2019-01-03T11:40:11.104Z,97080.70
2019-01-03T11:42:42.484Z,97075.28
2019-01-03T11:45:13.961Z,97070.40
2019-01-03T11:47:45.453Z,97071.26
2019-01-03T11:50:16.828Z,97070.75
2019-01-03T11:52:48.348Z,97068.52
2019-01-03T11:55:19.965Z,97065.23
2019-01-03T11:57:51.537Z,97074.52
2019-01-03T12:00:23.005Z,97080.61
2019-01-03T12:02:54.479Z,97075.34
2019-01-03T12:05:26.122Z,97071.94
2019-01-03T12:07:57.634Z,97072.27
2019-01-03T12:10:29.214Z,97067.98
2019-01-03T12:13:00.524Z,97063.69
2019-01-03T12:15:32.046Z,97061.23
2019-01-03T12:18:03.613Z,97061.67
2019-01-03T12:20:35.106Z,97062.06
2019-01-03T12:23:06.690Z,97059.59
2019-01-03T12:25:38.107Z,97060.12
2019-01-03T12:28:09.538Z,97070.19
2019-01-03T12:30:41.149Z,97065.16
2019-01-03T12:33:12.679Z,97069.09
2019-01-03T12:35:44.129Z,97061.11
2019-01-03T12:38:15.677Z,97070.28
2019-01-03T12:40:47.114Z,97071.47
2019-01-03T12:43:18.525Z,97066.57
2019-01-03T12:45:49.996Z,97068.23
2019-01-03T12:48:21.347Z,97058.98
2019-01-03T12:50:52.935Z,97067.20
2019-01-03T12:53:24.758Z,97069.44
2019-01-03T12:55:56.135Z,97065.47
2019-01-03T12:58:27.676Z,97078.38
2019-01-03T13:00:59.203Z,97073.33
2019-01-03T13:03:30.772Z,97076.88
2019-01-03T13:06:02.190Z,97073.31
2019-01-03T13:08:33.596Z,97082.70
2019-01-03T13:11:05.205Z,97081.80
2019-01-03T13:13:37.580Z,97098.20
2019-01-03T13:16:09.138Z,97104.31
2019-01-03T13:18:40.586Z,97104.53
2019-01-03T13:21:12.109Z,97099.05
2019-01-03T13:23:43.575Z,97097.14
2019-01-03T13:26:14.908Z,97099.70
2019-01-03T13:28:46.331Z,97094.70
2019-01-03T13:31:19.276Z,97097.46
2019-01-03T13:33:50.740Z,97101.84
2019-01-03T13:36:22.188Z,97105.56
2019-01-03T13:38:53.603Z,97104.57
2019-01-03T13:41:25.215Z,97106.13
2019-01-03T13:43:56.679Z,97105.48
2019-01-03T13:46:28.170Z,97103.05
2019-01-03T13:48:59.735Z,97104.27
2019-01-03T13:51:31.307Z,97109.17
2019-01-03T13:54:02.834Z,97111.69
2019-01-03T13:56:34.290Z,97106.19
2019-01-03T13:59:05.715Z,97106.89
2019-01-03T14:01:37.142Z,97110.99
2019-01-03T14:04:08.577Z,97100.46
2019-01-03T14:06:40.078Z,97099.97
2019-01-03T14:09:11.539Z,97107.19
2019-01-03T14:11:42.878Z,97109.86
2019-01-03T14:14:14.430Z,97109.22
2019-01-03T14:16:45.985Z,97097.23
2019-01-03T14:19:17.478Z,97095.96
2019-01-03T14:21:48.987Z,97093.85
2019-01-03T14:24:20.439Z,97092.06
2019-01-03T14:26:51.930Z,97088.94
2019-01-03T14:29:23.495Z,97084.20
2019-01-03T14:31:54.983Z,97084.64
2019-01-03T14:34:26.368Z,97083.77
2019-01-03T14:36:58.762Z,97084.42
2019-01-03T14:39:30.552Z,97083.51
2019-01-03T14:42:02.054Z,97084.34
2019-01-03T14:44:33.509Z,97084.70
2019-01-03T14:47:07.339Z,97083.62
2019-01-03T14:49:38.857Z,97086.82
2019-01-03T14:52:10.303Z,97082.48
2019-01-03T14:54:41.887Z,97083.88
2019-01-03T14:57:13.414Z,97082.52
2019-01-03T14:59:44.820Z,97079.39
2019-01-03T15:02:16.380Z,97079.35
2019-01-03T15:04:47.878Z,97074.80
2019-01-03T15:07:19.333Z,97074.55
2019-01-03T15:09:50.737Z,97072.91
2019-01-03T15:12:22.282Z,97069.19
2019-01-03T15:14:53.654Z,97051.97
2019-01-03T15:17:25.173Z,97047.52
2019-01-03T15:19:56.776Z,97039.86
2019-01-03T15:22:28.198Z,97036.15
2019-01-03T15:24:59.791Z,97032.59
2019-01-03T15:27:31.287Z,97025.77
2019-01-03T15:30:02.872Z,97035.45
2019-01-03T15:32:34.720Z,97024.61
2019-01-03T15:35:06.333Z,97017.03
2019-01-03T15:37:37.808Z,97011.98
2019-01-03T15:40:09.574Z,97012.66
2019-01-03T15:42:41.075Z,97020.70
2019-01-03T15:45:12.686Z,97007.97
2019-01-03T15:47:44.286Z,97001.53
2019-01-03T15:50:15.914Z,97003.73
2019-01-03T15:52:47.454Z,97008.05
2019-01-03T15:55:19.135Z,97014.82
2019-01-03T15:57:50.877Z,97020.85
2019-01-03T16:00:22.486Z,97022.30
2019-01-03T16:02:55.847Z,97020.19
2019-01-03T16:05:27.398Z,97020.69
2019-01-03T16:07:58.925Z,97028.39
2019-01-03T16:10:30.497Z,97018.88
2019-01-03T16:13:03.351Z,97011.55
2019-01-03T16:15:34.926Z,97005.13
2019-01-03T16:18:06.554Z,97006.56
2019-01-03T16:20:38.165Z,96997.09
2019-01-03T16:23:09.764Z,96988.58
2019-01-03T16:25:41.442Z,96992.06
2019-01-03T16:28:13.324Z,96980.78
2019-01-03T16:30:45.299Z,96979.25
2019-01-03T16:33:17.013Z,96973.96
2019-01-03T16:35:49.695Z,96967.97
2019-01-03T16:38:21.318Z,96963.22
2019-01-03T16:40:52.938Z,96961.08
2019-01-03T16:43:24.689Z,96958.90
2019-01-03T16:45:56.513Z,96967.70
2019-01-03T16:48:27.953Z,96968.88
2019-01-03T16:50:59.294Z,96965.45
2019-01-03T16:53:30.974Z,96957.83
2019-01-03T16:56:02.443Z,96965.89
2019-01-03T16:58:34.080Z,96959.20
2019-01-03T17:01:05.713Z,96963.31
2019-01-03T17:03:37.752Z,96962.68
2019-01-03T17:06:24.969Z,96957.33
2019-01-03T17:08:56.726Z,96952.80
2019-01-03T17:11:28.154Z,96944.61
2019-01-03T17:14:00.019Z,96938.75
2019-01-03T17:16:31.689Z,96951.03
2019-01-03T17:19:03.247Z,96962.20
2019-01-03T17:21:34.812Z,96950.86
2019-01-03T17:24:06.255Z,96948.48
2019-01-03T17:26:37.958Z,96953.70
2019-01-03T17:29:09.369Z,96976.08
2019-01-03T17:31:42.158Z,96977.63
2019-01-03T17:34:13.855Z,96980.17
2019-01-03T17:36:45.453Z,96982.31
2019-01-03T17:39:17.243Z,96992.66
2019-01-03T17:41:50.522Z,96994.16
2019-01-03T17:44:22.121Z,96995.46
2019-01-03T17:46:54.860Z,96993.72
2019-01-03T17:49:27.518Z,96995.42
2019-01-03T17:51:59.179Z,96996.27
2019-01-03T17:54:30.685Z,96988.57
2019-01-03T17:57:05.430Z,96976.73
2019-01-03T17:59:37.009Z,96973.69
2019-01-03T18:02:11.202Z,96966.95
2019-01-03T18:04:42.831Z,96948.98
2019-01-03T18:07:14.399Z,96939.16
2019-01-03T18:09:45.978Z,96934.23
2019-01-03T18:12:17.619Z,96930.42
2019-01-03T18:14:49.200Z,96921.66
2019-01-03T18:17:20.885Z,96918.81
2019-01-03T18:19:52.646Z,96912.29
2019-01-03T18:22:24.490Z,96917.70
2019-01-03T18:24:56.313Z,96910.41
2019-01-03T18:27:28.044Z,96916.77
2019-01-03T18:29:59.676Z,96911.05
2019-01-03T18:32:31.453Z,96918.60
2019-01-03T18:35:03.161Z,96917.39
2019-01-03T18:37:34.911Z,96911.48
2019-01-03T18:40:06.950Z,96908.09
2019-01-03T18:42:38.399Z,96897.83
2019-01-03T18:45:12.273Z,96893.08
2019-01-03T18:47:44.094Z,96898.27
2019-01-03T18:50:18.866Z,96896.95
2019-01-03T18:52:49.133Z,96889.67
2019-01-03T18:55:21.088Z,96889.60
2019-01-03T18:57:52.773Z,96885.05
2019-01-03T19:00:27.489Z,96885.95
2019-01-03T19:02:59.056Z,96893.02
2019-01-03T19:05:30.766Z,96889.27
2019-01-03T19:08:02.158Z,96896.22
2019-01-03T19:10:36.974Z,96901.70
2019-01-03T19:13:08.596Z,96900.80
2019-01-03T19:15:40.281Z,96911.47
2019-01-03T19:18:11.805Z,96900.70
2019-01-03T19:20:43.378Z,96911.76
2019-01-03T19:23:14.837Z,96905.74
2019-01-03T19:25:46.734Z,96903.20
2019-01-03T19:28:18.258Z,96903.20
2019-01-03T19:30:49.883Z,96902.57
2019-01-03T19:33:21.560Z,96901.09
2019-01-03T19:35:53.086Z,96898.65
2019-01-03T19:38:24.581Z,96909.98
2019-01-03T19:40:56.097Z,96906.16
2019-01-03T19:43:27.514Z,96902.48
2019-01-03T19:45:59.044Z,96903.56
2019-01-03T19:48:30.841Z,96883.86
2019-01-03T19:51:02.592Z,96878.84
2019-01-03T19:53:34.357Z,96881.88
2019-01-03T19:56:06.015Z,96874.02
2019-01-03T19:58:37.569Z,96871.81
2019-01-03T20:01:09.233Z,96857.20
2019-01-03T20:03:42.482Z,96862.09
2019-01-03T20:06:14.072Z,96852.44
2019-01-03T20:08:45.718Z,96845.32
2019-01-03T20:11:17.420Z,96849.62
2019-01-03T20:13:48.896Z,96850.12
2019-01-03T20:16:20.644Z,96847.86
2019-01-03T20:18:52.298Z,96838.73
2019-01-03T20:21:23.814Z,96834.58
2019-01-03T20:24:02.973Z,96835.48
2019-01-03T20:26:44.076Z,96841.15
2019-01-03T20:29:17.913Z,96825.14
2019-01-03T20:31:49.535Z,96829.61
2019-01-03T20:34:23.415Z,96831.71
2019-01-03T20:36:55.372Z,96839.88
2019-01-03T20:39:27.205Z,96860.22
2019-01-03T20:41:58.755Z,96853.66
2019-01-03T20:44:30.244Z,96858.52
2019-01-03T20:47:03.053Z,96860.44
2019-01-03T20:49:34.482Z,96856.19
2019-01-03T20:52:08.358Z,96856.59
2019-01-03T20:54:39.846Z,96854.21
2019-01-03T20:57:12.967Z,96857.18
2019-01-03T20:59:44.849Z,96854.73
2019-01-03T21:02:17.214Z,96848.17
2019-01-03T21:04:48.892Z,96860.95
2019-01-03T21:07:21.231Z,96850.30
2019-01-03T21:09:52.954Z,96850.70
2019-01-03T21:12:24.740Z,96848.44
2019-01-03T21:14:56.285Z,96851.35
2019-01-03T21:17:28.090Z,96846.05
2019-01-03T21:19:59.754Z,96854.78
2019-01-03T21:22:31.413Z,96841.35
2019-01-03T21:25:03.083Z,96837.61
2019-01-03T21:27:34.733Z,96833.45
2019-01-03T21:30:08.530Z,96835.86
2019-01-03T21:32:40.414Z,96823.18
2019-01-03T21:35:12.289Z,96823.58
2019-01-03T21:37:43.889Z,96825.48
2019-01-03T21:40:15.660Z,96832.69
2019-01-03T21:42:47.256Z,96851.63
2019-01-03T21:45:24.332Z,96833.88
2019-01-03T21:47:58.020Z,96849.52
2019-01-03T21:50:31.120Z,96857.08
2019-01-03T21:53:02.770Z,96853.18
2019-01-03T21:55:34.376Z,96866.16
2019-01-03T21:58:06.329Z,96866.73
2019-01-03T22:00:37.952Z,96880.53
2019-01-03T22:03:09.355Z,96874.45
2019-01-03T22:05:40.859Z,96884.80
2019-01-03T22:08:12.484Z,96886.56
2019-01-03T22:10:44.038Z,96893.42
2019-01-03T22:13:15.798Z,96886.35
2019-01-03T22:15:47.380Z,96889.38
2019-01-03T22:18:18.932Z,96901.14
2019-01-03T22:20:50.449Z,96893.06
2019-01-03T22:23:22.604Z,96904.59
2019-01-03T22:25:54.336Z,96907.80
2019-01-03T22:28:25.854Z,96899.17
2019-01-03T22:30:57.402Z,96906.08
2019-01-03T22:33:28.979Z,96900.09
2019-01-03T22:36:00.448Z,96900.09
2019-01-03T22:38:32.649Z,96905.70
2019-01-03T22:41:05.446Z,96907.34
2019-01-03T22:43:40.010Z,96911.50
2019-01-03T22:46:11.718Z,96909.86
2019-01-03T22:48:44.843Z,96918.38
2019-01-03T22:51:20.073Z,96928.12
2019-01-03T22:53:54.076Z,96919.84
2019-01-03T22:56:25.953Z,96915.15
2019-01-03T22:59:04.732Z,96923.08
2019-01-03T23:01:36.831Z,96930.19
2019-01-03T23:04:10.837Z,96928.98
2019-01-03T23:06:51.720Z,96924.05
2019-01-03T23:09:25.752Z,96929.73
2019-01-03T23:12:01.244Z,96922.66
2019-01-03T23:14:32.645Z,96923.04
2019-01-03T23:17:04.211Z,96929.02
2019-01-03T23:19:35.773Z,96925.38
2019-01-03T23:22:07.356Z,96932.02
2019-01-03T23:24:39.076Z,96946.81
2019-01-03T23:27:12.370Z,96944.16
2019-01-03T23:29:43.910Z,96940.44
2019-01-03T23:32:15.649Z,96946.77
2019-01-03T23:34:47.247Z,96946.34
2019-01-03T23:37:18.892Z,96947.96
2019-01-03T23:39:50.216Z,96949.77
2019-01-03T23:42:21.754Z,96942.67
2019-01-03T23:45:17.336Z,96951.23
2019-01-03T23:47:50.000Z,96938.20
2019-01-03T23:50:25.562Z,96942.44
2019-01-03T23:52:57.043Z,96945.02
2019-01-03T23:55:29.932Z,96941.75
2019-01-03T23:58:01.486Z,96941.14
